Time;durP1;ratioP1;P1;durP2;ratioP2;P2;SDS_P1;SDS_P2;PMS_P1;PMS_P2;Temp;Humidity;BMP_temperature;BMP_pressure;BME280_temperature;BME280_humidity;BME280_pressure;Samples;Min_cycle;Max_cycle;Signal;HPM_P1;HPM_P2
2022/01/23 00:00:51;;;;;;;77.03;28.23;;;;;;;-5.40;100.00;100856.66;5094953;28;20044;-71
2022/01/23 00:03:35;;;;;;;72.38;27.70;;;;;;;-5.37;100.00;100840.66;5094985;28;20055;-71
2022/01/23 00:06:19;;;;;;;73.53;26.92;;;;;;;-5.40;100.00;100836.25;5080821;28;20044;-71
2022/01/23 00:09:03;;;;;;;66.20;25.75;;;;;;;-5.39;100.00;100838.03;5095167;28;20072;-71
2022/01/23 00:11:52;;;;;;;79.05;24.92;;;;;;;-5.32;100.00;100840.13;5095561;28;20478;-71
2022/01/23 00:17:41;;;;;;;70.10;25.00;;;;;;;-5.29;100.00;100835.16;5095527;28;20048;-71
2022/01/23 00:20:25;;;;;;;70.60;22.92;;;;;;;-5.30;100.00;100841.06;5094888;28;20044;-71
2022/01/23 00:23:14;;;;;;;68.93;25.95;;;;;;;-5.30;100.00;100827.41;5095503;28;20051;-71
2022/01/23 00:32:05;;;;;;;52.22;18.35;;;;;;;-5.14;100.00;100844.44;5098528;28;20453;-71
2022/01/23 00:34:49;;;;;;;57.63;22.33;;;;;;;-5.13;100.00;100848.75;5098627;28;20733;-71
2022/01/23 00:37:33;;;;;;;55.40;20.83;;;;;;;-5.14;100.00;100847.00;5098628;28;20059;-71
2022/01/23 00:40:18;;;;;;;58.17;21.73;;;;;;;-5.06;100.00;100863.66;5084030;28;20483;-71
2022/01/23 00:43:14;;;;;;;59.72;20.92;;;;;;;-5.02;100.00;100871.56;5084196;28;20419;-71
2022/01/23 00:51:53;;;;;;;85.53;25.83;;;;;;;-4.86;100.00;100849.38;5098182;28;20084;-71
2022/01/23 00:54:37;;;;;;;88.75;27.58;;;;;;;-4.68;100.00;100857.13;5098152;28;20040;-71
2022/01/23 00:57:22;;;;;;;54.42;20.38;;;;;;;-4.61;100.00;100849.00;5098087;28;20052;-71
2022/01/23 01:00:08;;;;;;;48.38;18.38;;;;;;;-4.41;100.00;100850.03;5099112;28;20452;-71
2022/01/23 01:02:52;;;;;;;64.18;22.05;;;;;;;-4.23;100.00;100843.28;5098069;28;20353;-71
2022/01/23 01:05:36;;;;;;;41.08;17.13;;;;;;;-4.04;100.00;100845.97;5098754;28;20040;-71
2022/01/23 01:08:21;;;;;;;30.05;12.68;;;;;;;-3.94;100.00;100839.63;5098057;28;20353;-71
2022/01/23 01:14:18;;;;;;;32.70;13.02;;;;;;;-3.63;100.00;100842.00;5098485;28;20048;-71
2022/01/23 01:17:13;;;;;;;27.67;11.18;;;;;;;-3.57;100.00;100847.44;5098050;28;20090;-71
2022/01/23 01:32:17;;;;;;;27.20;10.73;;;;;;;-3.26;100.00;100832.63;5097408;28;20048;-72
2022/01/23 01:35:14;;;;;;;29.77;10.57;;;;;;;-3.14;100.00;100833.19;5083248;28;20040;-72
2022/01/23 01:38:00;;;;;;;25.98;10.32;;;;;;;-3.08;100.00;100841.19;5083301;28;20083;-71
2022/01/23 01:40:44;;;;;;;25.63;9.77;;;;;;;-3.03;100.00;100839.69;5082992;28;20079;-72
2022/01/23 01:43:29;;;;;;;26.33;10.07;;;;;;;-2.96;100.00;100853.66;5083189;28;20055;-72
2022/01/23 01:46:13;;;;;;;26.33;10.25;;;;;;;-2.91;100.00;100855.63;5097257;28;20040;-72
2022/01/23 01:49:05;;;;;;;23.98;9.18;;;;;;;-2.92;100.00;100860.72;5084024;28;20032;-72
2022/01/23 01:51:52;;;;;;;22.08;10.93;;;;;;;-2.96;100.00;100846.84;5097060;28;20043;-72
2022/01/23 01:54:36;;;;;;;26.85;10.40;;;;;;;-2.94;100.00;100846.94;5097045;28;20335;-72
2022/01/23 01:57:35;;;;;;;23.42;10.05;;;;;;;-2.83;100.00;100843.16;5082531;28;20106;-72
2022/01/23 02:00:45;;;;;;;31.80;11.40;;;;;;;-2.85;100.00;100830.28;5096888;28;20040;-72
2022/01/23 02:09:45;;;;;;;26.95;10.70;;;;;;;-2.76;100.00;100836.59;5096753;28;20040;-72
2022/01/23 02:13:01;;;;;;;25.27;9.35;;;;;;;-2.75;100.00;100836.69;5082286;28;20048;-72
2022/01/23 02:52:18;;;;;;;32.95;14.52;;;;;;;-2.59;100.00;100856.22;5095863;28;20048;-72
2022/01/23 02:55:12;;;;;;;41.88;16.63;;;;;;;-2.61;100.00;100857.81;5095997;28;20440;-72
2022/01/23 02:58:00;;;;;;;35.20;15.63;;;;;;;-2.59;100.00;100843.38;5095748;28;20109;-72
2022/01/23 03:00:59;;;;;;;29.88;12.68;;;;;;;-2.52;100.00;100852.22;5095834;28;20070;-72
2022/01/23 03:04:22;;;;;;;32.30;12.30;;;;;;;-2.54;100.00;100867.53;5054752;28;20065;-72
2022/01/23 03:10:17;;;;;;;27.70;11.82;;;;;;;-2.53;100.00;100871.88;5095740;28;20036;-72
2022/01/23 03:28:34;;;;;;;25.10;10.45;;;;;;;-2.33;100.00;100859.94;5095630;28;19920;-72
2022/01/23 03:31:26;;;;;;;27.58;10.48;;;;;;;-2.27;100.00;100854.19;5081274;28;20381;-72
2022/01/23 03:34:11;;;;;;;29.25;11.48;;;;;;;-2.31;100.00;100862.53;5095343;28;20044;-72
2022/01/23 03:36:56;;;;;;;30.08;11.45;;;;;;;-2.28;100.00;100858.41;5095331;28;20043;-72
2022/01/23 03:39:41;;;;;;;29.05;11.57;;;;;;;-2.27;100.00;100862.75;5081047;28;20063;-72
2022/01/23 03:42:26;;;;;;;36.92;12.27;;;;;;;-2.32;100.00;100861.66;5096008;28;20048;-72
2022/01/23 03:50:58;;;;;;;28.33;12.32;;;;;;;-2.35;100.00;100880.38;5095426;28;20040;-72
2022/01/23 03:53:56;;;;;;;25.70;11.70;;;;;;;-2.24;100.00;100874.81;5080757;28;20043;-72
2022/01/23 03:56:41;;;;;;;25.05;11.65;;;;;;;-2.16;100.00;100884.63;5095653;28;20353;-72
2022/01/23 03:59:28;;;;;;;27.77;12.07;;;;;;;-2.27;100.00;100896.13;5098067;28;20043;-72
2022/01/23 04:02:14;;;;;;;27.70;11.23;;;;;;;-2.09;100.00;100896.03;5085134;28;20430;-72
2022/01/23 04:04:59;;;;;;;29.55;11.15;;;;;;;-2.08;100.00;100890.09;5084907;28;20114;-72
2022/01/23 04:07:43;;;;;;;26.15;11.60;;;;;;;-2.08;100.00;100896.91;5099093;28;20119;-72
2022/01/23 04:10:28;;;;;;;26.00;12.15;;;;;;;-1.97;100.00;100900.84;5099206;28;20551;-72
2022/01/23 04:13:28;;;;;;;27.48;11.18;;;;;;;-2.00;100.00;100906.69;5098938;28;20063;-72
2022/01/23 04:19:29;;;;;;;27.60;11.93;;;;;;;-1.96;100.00;100913.72;5098965;28;20036;-72
2022/01/23 05:05:03;;;;;;;21.55;10.40;;;;;;;-1.81;100.00;100920.34;5089875;28;20060;-72
2022/01/23 05:08:08;;;;;;;74.53;33.88;;;;;;;-1.80;100.00;100917.81;5098268;28;20044;-72
2022/01/23 05:11:20;;;;;;;114.43;58.25;;;;;;;-1.80;100.00;100914.38;5087484;28;20044;-72
2022/01/23 05:14:27;;;;;;;82.78;43.72;;;;;;;-1.80;100.00;100914.38;5098561;28;20044;-72
2022/01/23 05:17:14;;;;;;;83.15;44.28;;;;;;;-1.78;100.00;100915.34;5098639;28;20044;-72
2022/01/23 05:19:59;;;;;;;60.72;28.55;;;;;;;-1.77;100.00;100910.25;5097913;28;20055;-72
2022/01/23 05:22:50;;;;;;;50.58;23.73;;;;;;;-1.69;100.00;100911.47;5097714;28;20102;-72
2022/01/23 05:25:37;;;;;;;33.92;15.73;;;;;;;-1.67;100.00;100909.81;5083489;28;20044;-72
2022/01/23 05:28:21;;;;;;;28.52;14.50;;;;;;;-1.65;100.00;100912.47;5098524;28;20090;-72
2022/01/23 05:31:05;;;;;;;25.15;12.57;;;;;;;-1.69;100.00;100919.16;5097571;28;20426;-72
2022/01/23 05:33:50;;;;;;;22.73;10.73;;;;;;;-1.61;100.00;100931.44;5083235;28;20040;-72
2022/01/23 05:36:35;;;;;;;19.55;9.48;;;;;;;-1.61;100.00;100934.03;5097495;28;20040;-72
2022/01/23 05:39:24;;;;;;;20.85;9.60;;;;;;;-1.57;100.00;100943.59;5097574;28;20044;-72
2022/01/23 05:42:09;;;;;;;21.27;10.30;;;;;;;-1.60;100.00;100940.91;5097468;28;20047;-72
2022/01/23 05:44:54;;;;;;;26.10;10.85;;;;;;;-1.66;100.00;100926.09;5097268;28;20036;-72
2022/01/23 05:47:38;;;;;;;21.70;11.10;;;;;;;-1.54;100.00;100938.59;5097230;28;20055;-72
2022/01/23 05:50:33;;;;;;;22.00;11.75;;;;;;;-1.55;100.00;100947.13;5084473;28;20043;-72
2022/01/23 05:53:41;;;;;;;25.52;10.68;;;;;;;-1.50;100.00;100950.75;5097038;28;20427;-72
2022/01/23 05:56:47;;;;;;;20.52;9.30;;;;;;;-1.53;100.00;100959.19;5085243;28;20036;-72
2022/01/23 05:59:39;;;;;;;20.95;9.77;;;;;;;-1.46;100.00;100961.25;5081969;28;20101;-72
2022/01/23 06:02:23;;;;;;;22.17;10.32;;;;;;;-1.45;100.00;100964.69;5095160;28;20043;-72
2022/01/23 06:05:08;;;;;;;21.23;9.32;;;;;;;-1.54;100.00;100967.75;5095197;28;20418;-72
2022/01/23 06:08:00;;;;;;;19.65;9.27;;;;;;;-1.44;100.00;100971.56;5095160;28;20335;-72
2022/01/23 06:10:56;;;;;;;23.00;10.13;;;;;;;-1.48;100.00;100967.13;5080809;28;20044;-72
2022/01/23 06:13:46;;;;;;;23.80;9.75;;;;;;;-1.45;100.00;100975.84;5082700;28;20044;-72
2022/01/23 06:16:32;;;;;;;24.08;11.90;;;;;;;-1.42;100.00;100977.66;5082392;28;20044;-72
2022/01/23 06:19:48;;;;;;;23.42;11.30;;;;;;;-1.46;100.00;100968.94;5086064;28;20056;-72
2022/01/23 06:23:02;;;;;;;113.70;50.70;;;;;;;-1.53;100.00;100954.06;5093155;28;20051;-72
2022/01/23 06:26:06;;;;;;;152.93;58.03;;;;;;;-1.44;100.00;100969.00;5095428;28;20040;-72
2022/01/23 06:29:04;;;;;;;129.40;51.20;;;;;;;-1.41;100.00;100964.00;5080229;28;20060;-72
2022/01/23 06:31:49;;;;;;;116.03;39.38;;;;;;;-1.37;100.00;100978.72;5080984;28;20319;-72
2022/01/23 06:34:34;;;;;;;62.60;23.67;;;;;;;-1.42;100.00;100978.53;5096398;28;20059;-72
2022/01/23 06:37:21;;;;;;;31.15;12.40;;;;;;;-1.34;100.00;100983.13;5096526;28;20062;-72
2022/01/23 06:40:06;;;;;;;23.95;10.90;;;;;;;-1.32;100.00;100972.09;5096220;28;20040;-72
2022/01/23 06:43:10;;;;;;;42.88;16.38;;;;;;;-1.36;100.00;100979.63;5096161;28;20060;-72
2022/01/23 06:46:12;;;;;;;30.38;12.35;;;;;;;-1.38;100.00;100976.09;5081808;28;20084;-72
2022/01/23 06:48:57;;;;;;;48.83;17.45;;;;;;;-1.30;100.00;100983.31;5081829;28;20032;-72
2022/01/23 06:51:42;;;;;;;58.15;21.38;;;;;;;-1.35;100.00;100982.25;5095686;28;20044;-72
2022/01/23 06:54:28;;;;;;;58.65;24.30;;;;;;;-1.33;100.00;100995.13;5081562;28;20051;-72
2022/01/23 06:57:13;;;;;;;75.53;29.70;;;;;;;-1.27;100.00;100993.72;5080897;28;20075;-72
2022/01/23 06:59:58;;;;;;;109.07;41.75;;;;;;;-1.23;100.00;100998.19;5096004;28;20040;-72
2022/01/23 07:03:03;;;;;;;129.02;45.65;;;;;;;-1.18;100.00;100993.22;5096672;28;20036;-72
2022/01/23 07:06:17;;;;;;;;;;;;;;;-1.15;100.00;100998.47;5092856;28;20060;-72
2022/01/23 07:09:08;;;;;;;103.20;36.70;;;;;;;-1.13;100.00;100991.72;5095980;28;19924;-72
2022/01/23 07:12:05;;;;;;;144.40;52.25;;;;;;;-1.10;100.00;100988.41;5095844;28;20040;-72
2022/01/23 07:15:08;;;;;;;49.75;23.38;;;;;;;-1.08;100.00;101005.63;5096389;28;20051;-72
2022/01/23 07:18:32;;;;;;;30.15;13.70;;;;;;;-1.09;100.00;101014.16;5074461;28;20110;-72
2022/01/23 07:21:27;;;;;;;21.75;10.25;;;;;;;-0.99;100.00;101012.84;5060244;28;20045;-72
2022/01/23 07:24:12;;;;;;;23.45;11.65;;;;;;;-0.98;100.00;101006.88;5092738;28;20048;-72
2022/01/23 07:27:00;;;;;;;32.33;12.95;;;;;;;-1.06;100.00;101000.56;5095418;28;20445;-72
2022/01/23 07:29:47;;;;;;;27.98;12.55;;;;;;;-0.89;100.00;101020.13;5095347;28;20047;-72
2022/01/23 07:32:31;;;;;;;26.15;11.75;;;;;;;-0.98;100.00;101028.31;5095001;28;20048;-72
2022/01/23 07:35:15;;;;;;;20.63;10.25;;;;;;;-0.89;100.00;101025.25;5095519;28;20036;-72
2022/01/23 07:38:00;;;;;;;22.60;11.35;;;;;;;-0.88;100.00;101023.56;5095355;28;20434;-72
2022/01/23 07:41:09;;;;;;;25.23;11.93;;;;;;;-0.93;100.00;101033.69;5084475;28;20438;-72
2022/01/23 07:44:12;;;;;;;23.73;11.77;;;;;;;-0.94;100.00;101049.94;5096110;28;20048;-72
2022/01/23 07:47:04;;;;;;;31.58;14.50;;;;;;;-0.79;100.00;101047.97;5095419;28;20040;-72
2022/01/23 07:50:01;;;;;;;26.58;13.55;;;;;;;-0.70;100.00;101060.34;5095188;28;20068;-72
2022/01/23 07:53:06;;;;;;;34.45;16.15;;;;;;;-0.71;100.00;101062.03;5083365;28;20364;-72
2022/01/23 07:56:11;;;;;;;125.47;52.05;;;;;;;-0.60;100.00;101064.16;5084089;28;20051;-72
2022/01/23 07:59:14;;;;;;;121.30;45.45;;;;;;;-0.57;100.00;101066.84;5083445;28;20059;-72
2022/01/23 08:02:18;;;;;;;130.80;55.72;;;;;;;-0.45;100.00;101067.34;5095797;28;20044;-72
2022/01/23 08:05:21;;;;;;;235.90;102.30;;;;;;;-0.34;100.00;101072.91;5095065;28;20434;-72
2022/01/23 08:08:19;;;;;;;317.80;181.88;;;;;;;-0.36;100.00;101087.41;5094919;28;20331;-72
2022/01/23 08:11:22;;;;;;;340.67;186.20;;;;;;;-0.17;100.00;101089.00;5095077;28;20113;-72
2022/01/23 08:14:07;;;;;;;305.23;158.70;;;;;;;-0.09;100.00;101085.91;5094881;28;20068;-72
2022/01/23 08:16:51;;;;;;;206.82;114.38;;;;;;;0.00;100.00;101087.97;5094927;28;20051;-72
2022/01/23 08:19:36;;;;;;;128.60;72.20;;;;;;;0.01;100.00;101084.56;5095568;28;20044;-72
2022/01/23 08:22:25;;;;;;;112.82;53.60;;;;;;;0.12;100.00;101106.44;5094911;28;20044;-72
2022/01/23 08:25:09;;;;;;;345.85;134.23;;;;;;;0.09;100.00;101105.47;5080585;28;20056;-72
2022/01/23 08:27:54;;;;;;;170.60;85.35;;;;;;;-0.04;100.00;101104.09;5080555;28;20384;-72
2022/01/23 08:30:38;;;;;;;104.65;51.42;;;;;;;0.11;100.00;101101.25;5094633;28;20040;-72
2022/01/23 08:33:24;;;;;;;81.35;42.97;;;;;;;0.16;100.00;101103.19;5094632;28;20040;-72
2022/01/23 08:36:08;;;;;;;91.80;56.05;;;;;;;0.42;100.00;101105.81;5094571;28;20040;-72
2022/01/23 08:38:53;;;;;;;46.45;31.00;;;;;;;0.44;100.00;101101.63;5095117;28;20040;-72
2022/01/23 08:41:49;;;;;;;72.25;40.00;;;;;;;0.41;100.00;101104.94;5094949;28;20147;-73
2022/01/23 08:44:34;;;;;;;41.60;19.98;;;;;;;0.51;100.00;101105.28;5095331;28;20056;-73
2022/01/23 08:47:19;;;;;;;33.10;15.05;;;;;;;0.49;100.00;101101.78;5098106;28;20078;-73
2022/01/23 08:50:04;;;;;;;30.23;15.02;;;;;;;0.61;100.00;101105.66;5098706;28;20036;-73
2022/01/23 08:52:49;;;;;;;31.75;12.88;;;;;;;0.27;100.00;101108.72;5097857;28;20040;-73
2022/01/23 08:55:33;;;;;;;46.40;19.05;;;;;;;0.58;100.00;101112.41;5097875;28;20116;-73
2022/01/23 08:58:18;;;;;;;50.47;23.45;;;;;;;0.64;100.00;101107.50;5097739;28;20048;-73
2022/01/23 09:01:03;;;;;;;44.75;19.67;;;;;;;0.82;100.00;101120.16;5097770;28;20067;-73
2022/01/23 09:03:47;;;;;;;38.15;15.32;;;;;;;0.72;100.00;101123.25;5069263;28;20074;-73
2022/01/23 09:06:32;;;;;;;46.63;19.92;;;;;;;0.83;100.00;101117.63;5098418;28;20105;-73
2022/01/23 09:09:20;;;;;;;96.93;47.75;;;;;;;0.76;100.00;101127.69;5083442;28;20086;-74
2022/01/23 09:12:25;;;;;;;129.10;57.72;;;;;;;0.95;100.00;101139.53;5083371;28;20036;-74
2022/01/23 09:15:10;;;;;;;80.75;36.53;;;;;;;1.07;100.00;101133.09;5097461;28;20040;-74
2022/01/23 09:17:55;;;;;;;33.50;15.13;;;;;;;1.12;100.00;101141.00;5097371;28;20048;-74
2022/01/23 09:20:40;;;;;;;34.80;16.65;;;;;;;1.20;100.00;101138.66;5082940;28;20055;-73
2022/01/23 09:23:24;;;;;;;34.17;14.10;;;;;;;1.09;100.00;101154.66;5097170;28;20365;-74
2022/01/23 09:26:10;;;;;;;63.97;32.22;;;;;;;1.29;100.00;101147.59;5098057;28;20040;-74
2022/01/23 09:28:59;;;;;;;107.20;50.60;;;;;;;1.55;100.00;101150.16;5096880;28;20047;-73
2022/01/23 09:31:50;;;;;;;62.22;31.17;;;;;;;1.71;100.00;101146.38;5097591;28;20067;-74
2022/01/23 09:34:36;;;;;;;177.75;84.55;;;;;;;1.73;100.00;101155.06;5082586;28;20036;-74
2022/01/23 09:37:21;;;;;;;117.40;57.13;;;;;;;1.55;100.00;101156.22;5082624;28;20060;-73
2022/01/23 09:40:06;;;;;;;90.25;44.90;;;;;;;1.87;100.00;101156.38;5097471;28;20051;-73
2022/01/23 09:42:58;;;;;;;54.67;27.92;;;;;;;1.95;100.00;101148.84;5096638;28;20201;-73
2022/01/23 09:45:49;;;;;;;41.85;21.27;;;;;;;1.84;100.00;101157.16;5096543;28;20036;-73
2022/01/23 09:48:34;;;;;;;83.38;34.65;;;;;;;2.11;100.00;101148.50;5082819;28;20040;-73
2022/01/23 09:51:22;;;;;;;185.48;59.75;;;;;;;2.34;100.00;101139.75;5097399;28;20041;-76
2022/01/23 09:54:10;;;;;;;112.18;39.25;;;;;;;2.36;100.00;101132.00;5096849;28;20123;-73
2022/01/23 09:57:01;;;;;;;75.45;26.98;;;;;;;2.60;100.00;101141.31;5080412;28;20464;-73
2022/01/23 09:59:46;;;;;;;67.00;31.77;;;;;;;2.59;100.00;101135.25;5095266;28;20036;-73
2022/01/23 10:02:31;;;;;;;61.95;30.92;;;;;;;2.42;100.00;101119.25;5094279;28;20050;-74
2022/01/23 10:05:16;;;;;;;68.78;31.60;;;;;;;2.44;100.00;101142.56;5094485;28;20044;-72
2022/01/23 10:08:01;;;;;;;75.15;32.80;;;;;;;2.71;100.00;101145.97;5094757;28;20044;-72
2022/01/23 10:10:51;;;;;;;69.18;29.08;;;;;;;2.58;100.00;101154.22;5095379;28;20040;-72
2022/01/23 10:13:36;;;;;;;62.40;26.95;;;;;;;2.76;100.00;101156.41;5094592;28;20040;-72
2022/01/23 10:16:21;;;;;;;53.45;23.30;;;;;;;2.85;100.00;101153.22;5094569;28;20044;-72
2022/01/23 10:19:08;;;;;;;57.03;23.30;;;;;;;3.08;100.00;101152.13;5094609;28;20089;-72
2022/01/23 10:21:53;;;;;;;51.85;21.88;;;;;;;3.27;100.00;101149.19;5094556;28;20060;-74
2022/01/23 10:24:37;;;;;;;71.55;28.13;;;;;;;3.45;100.00;101159.16;5095266;28;20078;-72
2022/01/23 10:27:23;;;;;;;57.38;25.58;;;;;;;3.36;100.00;101152.88;5095200;28;20136;-72
2022/01/23 10:30:17;;;;;;;39.25;17.98;;;;;;;3.42;100.00;101153.03;5082409;28;20185;-72
2022/01/23 10:33:11;;;;;;;37.60;21.08;;;;;;;3.28;100.00;101157.81;5096157;28;20100;-72
2022/01/23 10:36:11;;;;;;;36.65;18.35;;;;;;;3.35;100.00;101154.59;5096918;28;20036;-72
2022/01/23 10:39:01;;;;;;;44.22;24.13;;;;;;;3.15;100.00;101156.66;5082347;28;20043;-72
2022/01/23 10:41:59;;;;;;;37.92;18.75;;;;;;;3.73;100.00;101152.03;5096097;28;20047;-72
2022/01/23 10:47:55;;;;;;;134.48;49.00;;;;;;;3.61;100.00;101137.09;5096176;28;20115;-72
2022/01/23 10:50:39;;;;;;;90.78;33.45;;;;;;;4.03;100.00;101138.94;5095892;28;20323;-72
2022/01/23 10:53:24;;;;;;;66.43;26.08;;;;;;;4.01;100.00;101130.25;5095663;28;20043;-72
2022/01/23 10:56:08;;;;;;;44.80;19.35;;;;;;;4.16;100.00;101125.41;5096515;28;20048;-72
2022/01/23 10:59:08;;;;;;;34.63;15.38;;;;;;;4.20;100.00;101129.81;5095379;28;20055;-72
2022/01/23 11:02:11;;;;;;;33.90;15.65;;;;;;;4.38;100.00;101125.84;5095836;28;20055;-72
2022/01/23 11:05:04;;;;;;;33.28;14.55;;;;;;;4.35;100.00;101133.56;5081734;28;20040;-72
2022/01/23 11:07:49;;;;;;;;;;;;;;;4.28;100.00;101126.50;5095550;28;20051;-72
2022/01/23 11:10:33;;;;;;;54.80;23.45;;;;;;;4.26;100.00;101125.59;5096533;28;19920;-72
2022/01/23 11:19:40;;;;;;;40.05;19.50;;;;;;;4.03;100.00;101100.06;5096417;28;20044;-72
2022/01/23 11:22:31;;;;;;;43.17;19.80;;;;;;;4.29;100.00;101104.91;5095374;28;20324;-72
2022/01/23 11:25:15;;;;;;;65.25;27.85;;;;;;;4.04;100.00;101108.69;5095881;28;20040;-71
2022/01/23 11:28:03;;;;;;;74.28;33.75;;;;;;;3.63;100.00;101093.94;5096041;28;20040;-71
2022/01/23 11:30:48;;;;;;;63.88;28.80;;;;;;;3.91;100.00;101112.72;5095952;28;20131;-71
2022/01/23 11:33:33;;;;;;;73.45;31.42;;;;;;;3.93;100.00;101111.03;5096011;28;20032;-72
2022/01/23 11:36:18;;;;;;;67.25;28.92;;;;;;;4.04;100.00;101116.47;5095679;28;20311;-71
2022/01/23 11:39:38;;;;;;;57.60;25.90;;;;;;;4.07;100.00;101124.34;5080983;28;20426;-71
2022/01/23 11:54:11;;;;;;;38.60;16.42;;;;;;;4.17;100.00;101128.88;5094805;28;20076;-71
2022/01/23 11:56:59;;;;;;;40.30;17.80;;;;;;;4.31;100.00;101122.25;5080693;28;20513;-74
2022/01/23 12:00:07;;;;;;;35.97;17.05;;;;;;;4.27;100.00;101143.78;5096130;28;20071;-74
2022/01/23 12:03:08;;;;;;;33.22;15.52;;;;;;;4.01;100.00;101148.41;5095763;28;20105;-72
2022/01/23 12:06:11;;;;;;;24.75;12.57;;;;;;;4.39;100.00;101140.59;5095683;28;20107;-71
2022/01/23 12:09:17;;;;;;;30.20;13.70;;;;;;;4.33;100.00;101154.31;5080651;28;20370;-71
2022/01/23 12:12:29;;;;;;;31.88;14.60;;;;;;;4.58;100.00;101157.41;5095891;28;20105;-71
2022/01/23 12:18:29;;;;;;;38.88;16.67;;;;;;;4.14;100.00;101160.78;5094851;28;20075;-71
2022/01/23 12:21:30;;;;;;;31.85;15.38;;;;;;;4.32;100.00;101164.63;5099553;28;20044;-71
2022/01/23 12:24:17;;;;;;;30.00;14.05;;;;;;;4.34;100.00;101156.03;5099523;28;20384;-71
2022/01/23 12:27:31;;;;;;;21.70;11.38;;;;;;;4.22;100.00;101155.78;5084467;28;20058;-71
2022/01/23 12:30:15;;;;;;;;;;;;;;;4.21;100.00;101160.09;5095576;28;20497;-71
2022/01/23 12:33:16;;;;;;;46.67;22.10;;;;;;;4.16;100.00;101153.03;5098548;28;19931;-71
2022/01/23 12:36:23;;;;;;;55.63;23.65;;;;;;;4.14;100.00;101160.78;5098774;28;20048;-72
2022/01/23 12:39:08;;;;;;;50.22;20.45;;;;;;;4.13;100.00;101158.19;5099095;28;20032;-71
2022/01/23 12:41:55;;;;;;;52.00;22.60;;;;;;;4.20;100.00;101144.50;5099353;28;20119;-71
2022/01/23 12:44:40;;;;;;;52.40;23.52;;;;;;;4.34;100.00;101162.97;5098371;28;20048;-71
2022/01/23 12:47:24;;;;;;;46.85;22.92;;;;;;;4.29;100.00;101154.19;5084231;28;20107;-72
2022/01/23 12:50:09;;;;;;;44.15;21.52;;;;;;;4.22;100.00;101154.06;5098312;28;20114;-74
2022/01/23 12:52:53;;;;;;;40.90;16.63;;;;;;;4.18;100.00;101139.25;5098643;28;20135;-74
2022/01/23 12:56:02;;;;;;;38.75;18.25;;;;;;;4.06;100.00;101159.72;5099058;28;20036;-74
2022/01/23 12:58:52;;;;;;;41.90;20.27;;;;;;;4.07;100.00;101145.94;5097873;28;20070;-74
2022/01/23 13:01:42;;;;;;;46.88;21.30;;;;;;;4.13;100.00;101156.47;5098128;28;20097;-71
2022/01/23 13:04:42;;;;;;;44.65;19.58;;;;;;;4.13;100.00;101155.59;5097954;28;20119;-71
2022/01/23 13:07:41;;;;;;;54.35;24.98;;;;;;;4.11;100.00;101146.88;5098727;28;20036;-71
2022/01/23 13:10:51;;;;;;;79.88;35.25;;;;;;;4.17;100.00;101149.63;5098509;28;20047;-74
2022/01/23 13:31:10;;;;;;;153.70;78.03;;;;;;;3.24;100.00;101151.69;5098364;28;20044;-74
2022/01/23 13:33:54;;;;;;;82.85;42.70;;;;;;;3.26;100.00;101150.03;5097483;28;20072;-74
2022/01/23 13:36:55;;;;;;;52.13;24.73;;;;;;;3.33;100.00;101155.38;5083359;28;20040;-74
2022/01/23 13:39:45;;;;;;;40.15;20.73;;;;;;;3.49;100.00;101167.88;5098730;28;20040;-74
2022/01/23 13:49:48;;;;;;;91.22;34.35;;;;;;;3.24;100.00;101177.59;5098076;28;19920;-74
2022/01/23 13:52:00;;;;;;;94.03;37.03;;;;;;;3.30;100.00;101178.59;5097804;28;20350;-72
2022/01/23 13:58:33;;;;;;;74.25;34.15;;;;;;;3.33;100.00;101176.09;5081310;28;20124;-72
2022/01/23 14:01:34;;;;;;;56.72;26.50;;;;;;;3.24;100.00;101182.75;5098434;28;20097;-72
2022/01/23 14:04:21;;;;;;;49.17;22.90;;;;;;;3.18;100.00;101181.72;5097469;28;20406;-74
2022/01/23 14:07:07;;;;;;;47.85;22.02;;;;;;;3.28;100.00;101192.41;5097644;28;20070;-74
2022/01/23 14:09:54;;;;;;;57.90;25.95;;;;;;;3.25;100.00;101183.63;5097530;28;20055;-73
2022/01/23 14:12:38;;;;;;;49.92;23.27;;;;;;;3.26;100.00;101183.69;5082618;28;20059;-74
2022/01/23 14:15:26;;;;;;;54.92;25.23;;;;;;;3.17;100.00;101180.84;5080785;28;20055;-74
2022/01/23 14:18:13;;;;;;;50.63;22.45;;;;;;;3.09;100.00;101177.19;5080802;28;20358;-74
2022/01/23 14:21:01;;;;;;;55.53;25.02;;;;;;;3.12;100.00;101179.88;5094941;28;20036;-74
2022/01/23 14:23:54;;;;;;;65.50;28.98;;;;;;;3.01;100.00;101176.97;5095640;28;20438;-74
2022/01/23 14:26:38;;;;;;;62.95;28.85;;;;;;;2.89;100.00;101180.94;5080574;28;20040;-72
2022/01/23 14:29:24;;;;;;;48.70;23.75;;;;;;;2.75;100.00;101181.44;5095025;28;20040;-72
2022/01/23 14:32:36;;;;;;;69.15;33.38;;;;;;;2.76;100.00;101183.19;5096076;28;20115;-72
2022/01/23 14:35:25;;;;;;;134.25;64.50;;;;;;;2.67;100.00;101185.53;5096549;28;20040;-72
2022/01/23 14:38:24;;;;;;;143.35;72.88;;;;;;;2.72;100.00;101185.63;5096816;28;20044;-72
2022/01/23 14:41:09;;;;;;;106.03;53.10;;;;;;;2.47;100.00;101202.13;5097167;28;20039;-74
2022/01/23 14:43:54;;;;;;;88.78;44.55;;;;;;;2.15;100.00;101101.25;5082346;28;20035;-74
2022/01/23 14:46:38;;;;;;;112.63;47.25;;;;;;;2.69;100.00;101188.13;5097525;28;20088;-74
2022/01/23 14:49:27;;;;;;;75.43;32.78;;;;;;;2.67;100.00;101189.81;5096612;28;20123;-74
2022/01/23 14:52:13;;;;;;;71.22;31.05;;;;;;;2.64;100.00;101190.59;5096221;28;20062;-74
2022/01/23 14:54:58;;;;;;;126.68;50.53;;;;;;;2.65;100.00;101196.66;5096537;28;20044;-74
2022/01/23 14:57:44;;;;;;;140.43;56.00;;;;;;;2.60;100.00;101193.94;5081719;28;20044;-74
2022/01/23 15:00:34;;;;;;;152.35;58.20;;;;;;;2.62;100.00;101206.91;5081850;28;20047;-74
2022/01/23 15:03:20;;;;;;;137.43;55.95;;;;;;;2.58;100.00;101212.00;5096056;28;20044;-74
2022/01/23 15:06:05;;;;;;;137.10;53.50;;;;;;;2.52;100.00;101200.59;5096032;28;20048;-74
2022/01/23 15:08:49;;;;;;;121.80;53.05;;;;;;;2.51;100.00;101207.47;5096138;28;20036;-74
2022/01/23 15:11:34;;;;;;;121.53;50.00;;;;;;;2.47;100.00;101215.97;5081649;28;20113;-74
2022/01/23 15:14:19;;;;;;;110.75;46.67;;;;;;;2.42;100.00;101214.94;5095814;28;20093;-74
2022/01/23 15:17:04;;;;;;;109.22;45.38;;;;;;;2.38;100.00;101222.59;5096128;28;20040;-74
2022/01/23 15:19:49;;;;;;;111.68;45.58;;;;;;;2.28;100.00;101222.28;5081628;28;20050;-74
2022/01/23 15:22:33;;;;;;;105.97;43.67;;;;;;;2.26;100.00;101229.13;5096284;28;20105;-74
2022/01/23 15:25:19;;;;;;;123.63;45.95;;;;;;;2.17;100.00;101230.53;5096718;28;20040;-74
2022/01/23 15:28:04;;;;;;;124.45;46.83;;;;;;;2.08;100.00;101238.88;5095681;28;20134;-74
2022/01/23 15:30:49;;;;;;;124.60;47.88;;;;;;;1.96;100.00;101217.81;5096874;28;20032;-74
2022/01/23 15:33:33;;;;;;;124.97;48.22;;;;;;;1.84;100.00;101221.75;5095424;28;20040;-74
2022/01/23 15:36:18;;;;;;;125.00;47.95;;;;;;;1.73;100.00;101219.66;5096581;28;20040;-74
2022/01/23 15:39:05;;;;;;;120.47;45.97;;;;;;;1.70;100.00;101224.72;5095671;28;20040;-74
2022/01/23 15:41:49;;;;;;;120.70;46.00;;;;;;;1.63;100.00;101227.09;5095312;28;20040;-74
2022/01/23 15:44:35;;;;;;;111.75;41.78;;;;;;;1.60;100.00;101229.56;5095931;28;20044;-74
2022/01/23 15:47:19;;;;;;;102.55;38.35;;;;;;;1.49;100.00;101217.97;5095970;28;20097;-74
2022/01/23 15:50:07;;;;;;;91.50;35.85;;;;;;;1.47;100.00;101226.53;5081186;28;20067;-74
2022/01/23 15:52:52;;;;;;;98.88;41.60;;;;;;;1.49;100.00;101236.06;5081406;28;20048;-74
2022/01/23 15:55:36;;;;;;;112.25;45.65;;;;;;;1.44;100.00;101239.31;5102546;28;20040;-74
2022/01/23 15:58:21;;;;;;;140.77;49.60;;;;;;;1.40;100.00;101236.63;5101716;28;20131;-74
2022/01/23 16:01:05;;;;;;;132.27;49.42;;;;;;;1.43;100.00;101245.28;5101862;28;20047;-74
2022/01/23 16:03:50;;;;;;;135.75;50.33;;;;;;;1.40;100.00;101238.34;5101771;28;20126;-74